Time;durP1;ratioP1;P1;durP2;ratioP2;P2;SDS_P1;SDS_P2;PMS_P1;PMS_P2;Temp;Humidity;BMP_temperature;BMP_pressure;BME280_temperature;BME280_humidity;BME280_pressure;Samples;Min_cycle;Max_cycle;Signal;HPM_P1;HPM_P2
2023/04/01 00:01:58;;;;;;;2.63;1.10;;;8.40;92.00;;;8.67;76.50;96478.44;5038345;28;20461;-72
2023/04/01 00:04:26;;;;;;;1.70;0.90;;;8.50;91.80;;;8.67;76.49;96471.16;5039917;28;20460;-72
2023/04/01 00:06:53;;;;;;;3.90;1.13;;;8.60;91.50;;;8.76;76.01;96464.34;5038900;28;20463;-72
2023/04/01 00:09:20;;;;;;;2.47;1.20;;;8.70;91.10;;;8.84;75.76;96471.22;5050439;28;20461;-72
2023/04/01 00:11:48;;;;;;;2.60;0.80;;;8.80;90.80;;;8.95;74.78;96461.41;5043590;28;20465;-72
2023/04/01 00:14:15;;;;;;;3.10;1.87;;;8.90;90.30;;;8.59;75.67;96415.03;5039884;28;20443;-72
2023/04/01 00:16:45;;;;;;;5.83;0.97;;;8.90;90.20;;;8.85;74.93;96453.16;5043220;28;20451;-72
2023/04/01 00:19:15;;;;;;;2.00;1.17;;;8.90;90.30;;;9.00;74.74;96463.41;5037529;28;20442;-72
2023/04/01 00:21:42;;;;;;;6.30;1.47;;;8.90;90.40;;;9.06;74.15;96449.78;5037788;28;20466;-71
2023/04/01 00:24:11;;;;;;;2.17;1.07;;;9.00;90.10;;;9.20;73.90;96479.91;5042022;28;20491;-72
2023/04/01 00:26:40;;;;;;;1.70;0.90;;;9.10;89.40;;;9.15;73.70;96470.91;5044279;28;20472;-72
2023/04/01 00:29:07;;;;;;;4.03;1.23;;;9.10;89.10;;;9.11;74.59;96459.00;5046725;28;20459;-71
2023/04/01 00:31:35;;;;;;;6.77;1.40;;;9.10;89.40;;;8.79;73.92;96409.16;5044695;28;20471;-72
2023/04/01 00:34:04;;;;;;;2.07;1.10;;;9.10;88.90;;;9.13;73.52;96464.94;5044163;28;20452;-72
2023/04/01 00:36:31;;;;;;;2.57;1.00;;;9.10;88.50;;;9.20;73.32;96462.91;5045800;28;20513;-71
2023/04/01 00:39:00;;;;;;;4.50;0.90;;;9.10;88.00;;;9.24;73.18;96458.66;5047561;28;20470;-71
2023/04/01 00:41:27;;;;;;;2.33;0.87;;;9.20;88.10;;;9.27;73.04;96466.25;5052113;28;20456;-72
2023/04/01 00:44:17;;;;;;;3.40;0.80;;;9.20;88.00;;;9.31;72.47;96458.50;5060071;28;20849;-71
2023/04/01 00:46:45;;;;;;;2.10;0.93;;;9.20;87.50;;;9.20;72.64;96474.50;5064820;28;20481;-72
2023/04/01 00:49:15;;;;;;;2.07;0.77;;;9.20;86.90;;;9.33;72.12;96461.78;5059261;28;20469;-71
2023/04/01 00:51:43;;;;;;;2.53;0.70;;;9.20;87.00;;;9.26;72.60;96470.00;5051127;28;20511;-71
2023/04/01 00:54:12;;;;;;;2.97;0.70;;;9.20;86.70;;;9.21;72.37;96467.25;5045537;28;20454;-71
2023/04/01 00:56:42;;;;;;;1.30;0.63;;;9.20;86.70;;;9.40;71.84;96462.44;5044598;28;20453;-71
2023/04/01 00:59:15;;;;;;;3.50;0.80;;;9.20;86.60;;;9.23;72.05;96432.78;5042620;28;20441;-72
2023/04/01 01:01:43;;;;;;;1.43;0.70;;;9.20;86.50;;;9.39;71.71;96459.97;5045721;28;20518;-71
2023/04/01 01:04:25;;;;;;;3.23;0.80;;;9.20;86.40;;;9.17;73.06;96452.59;5045140;28;20480;-71
2023/04/01 01:07:03;;;;;;;1.57;0.80;;;9.20;86.30;;;9.27;72.07;96447.41;5041114;28;20555;-71
2023/04/01 01:09:42;;;;;;;1.20;0.70;;;9.20;86.40;;;9.27;71.93;96449.28;5043215;28;20508;-72
2023/04/01 01:12:14;;;;;;;1.17;0.60;;;9.20;86.30;;;9.34;71.42;96463.41;5029992;28;20465;-71
2023/04/01 01:14:57;;;;;;;1.53;0.60;;;9.20;86.10;;;9.30;71.97;96464.97;5067395;28;20544;-73
2023/04/01 01:17:40;;;;;;;1.17;0.70;;;9.20;86.40;;;9.28;72.04;96464.41;5044912;28;20548;-71
2023/04/01 01:20:43;;;;;;;4.97;1.00;;;9.20;85.90;;;9.32;71.92;96452.84;5044393;28;20490;-71
2023/04/01 01:23:45;;;;;;;2.00;0.60;;;9.30;85.70;;;9.23;71.68;96462.44;5052935;28;20483;-72
2023/04/01 01:26:52;;;;;;;2.57;0.80;;;9.20;85.70;;;8.94;71.39;96395.16;5049872;28;20456;-71
2023/04/01 01:30:18;;;;;;;1.80;0.60;;;9.20;85.80;;;9.18;72.26;96448.88;5046494;28;20456;-71
2023/04/01 01:33:30;;;;;;;2.53;0.60;;;9.20;85.80;;;9.31;71.88;96453.91;5040536;28;20454;-71
2023/04/01 01:36:03;;;;;;;3.07;0.70;;;9.20;85.60;;;9.17;72.16;96458.00;5056980;28;20567;-72
2023/04/01 01:38:35;;;;;;;1.73;0.90;;;9.20;85.70;;;9.24;71.52;96453.28;5039317;28;20455;-69
2023/04/01 01:41:06;;;;;;;1.33;0.63;;;9.20;85.80;;;9.26;71.56;96455.75;5047706;28;20456;-72
2023/04/01 01:43:38;;;;;;;1.50;0.50;;;9.20;85.70;;;9.17;71.19;96431.06;5036683;28;20468;-70
2023/04/01 01:46:11;;;;;;;1.40;0.50;;;9.20;85.70;;;9.33;71.50;96457.22;5039315;28;20459;-71
2023/04/01 01:48:41;;;;;;;2.50;1.07;;;9.20;85.70;;;9.37;70.52;96462.09;5047964;28;20457;-71
2023/04/01 01:51:10;;;;;;;3.80;0.50;;;9.20;85.40;;;9.28;71.07;96453.63;5040518;28;20717;-73
2023/04/01 01:53:37;;;;;;;2.27;0.60;;;9.20;85.50;;;9.02;71.32;96405.53;5045403;28;20521;-72
2023/04/01 01:56:06;;;;;;;0.70;0.50;;;9.20;85.30;;;9.40;70.95;96448.13;5037370;28;20462;-72
2023/04/01 01:58:40;;;;;;;2.43;0.70;;;9.20;85.50;;;9.13;70.62;96408.38;5041171;28;20454;-71
2023/04/01 02:01:11;;;;;;;1.67;1.27;;;9.20;85.30;;;9.26;70.74;96437.69;5055085;28;20447;-71
2023/04/01 02:03:41;;;;;;;1.10;0.70;;;9.20;85.00;;;9.28;70.78;96432.84;5046015;28;20578;-72
2023/04/01 02:06:15;;;;;;;1.73;0.77;;;9.20;85.00;;;8.91;70.75;96369.50;5061558;28;20442;-70
2023/04/01 02:08:46;;;;;;;1.83;0.50;;;9.20;85.00;;;9.29;70.92;96441.78;5069836;28;21333;-71
2023/04/01 02:11:18;;;;;;;1.40;0.60;;;9.20;85.40;;;9.33;70.81;96427.56;5053552;28;20467;-72
2023/04/01 02:13:53;;;;;;;0.93;0.50;;;9.10;85.50;;;9.28;71.00;96422.06;5048535;28;20454;-72
2023/04/01 02:16:25;;;;;;;5.17;0.70;;;9.20;85.20;;;9.18;70.28;96411.16;5046197;28;20459;-72
2023/04/01 02:18:56;;;;;;;3.10;0.60;;;9.10;84.80;;;9.43;70.08;96436.84;5048625;28;20462;-71
2023/04/01 02:21:32;;;;;;;1.60;0.60;;;9.20;84.80;;;9.39;70.02;96439.22;5047094;28;20459;-72
2023/04/01 02:24:03;;;;;;;2.10;0.60;;;9.20;85.00;;;9.23;70.72;96434.66;5041296;28;21055;-72
2023/04/01 02:26:31;;;;;;;1.93;0.70;;;9.10;84.90;;;9.37;70.71;96440.53;5041426;28;20792;-73
2023/04/01 02:29:00;;;;;;;3.60;1.23;;;9.10;84.90;;;9.38;70.19;96444.88;5042990;28;20480;-70
2023/04/01 02:31:27;;;;;;;2.20;0.60;;;9.10;84.80;;;9.30;70.36;96438.81;5037305;28;20506;-71
2023/04/01 02:33:56;;;;;;;1.47;0.53;;;9.10;84.70;;;9.37;69.83;96449.44;5042101;28;20460;-72
2023/04/01 02:36:25;;;;;;;3.60;0.77;;;9.20;84.50;;;9.20;70.68;96438.66;5039921;28;20477;-73
2023/04/01 02:38:54;;;;;;;1.00;0.50;;;9.20;84.40;;;9.24;70.45;96441.66;5047331;28;20461;-71
2023/04/01 02:41:21;;;;;;;1.30;0.40;;;9.10;84.50;;;9.23;70.29;96451.66;5048295;28;20460;-72
2023/04/01 02:43:48;;;;;;;2.07;0.90;;;9.20;84.30;;;9.40;70.16;96453.50;5049458;28;20474;-71
2023/04/01 02:46:15;;;;;;;1.87;0.50;;;9.20;84.30;;;9.29;70.32;96450.66;5043509;28;20464;-72
2023/04/01 02:48:43;;;;;;;1.17;0.73;;;9.20;84.40;;;9.15;69.63;96450.19;5046023;28;20452;-72
2023/04/01 02:51:10;;;;;;;3.33;0.60;;;9.10;83.80;;;9.26;70.48;96453.03;5061122;28;20519;-74
2023/04/01 02:53:39;;;;;;;3.90;0.43;;;9.10;83.90;;;9.27;69.46;96450.09;5044685;28;20452;-72
2023/04/01 02:56:06;;;;;;;0.93;0.60;;;9.10;83.90;;;9.35;69.27;96460.47;5041650;28;22509;-73
2023/04/01 02:58:34;;;;;;;2.80;0.60;;;9.20;83.80;;;9.35;69.71;96460.47;5043528;28;20456;-73
2023/04/01 03:01:01;;;;;;;1.90;0.67;;;9.20;83.70;;;9.39;68.85;96459.97;5049968;28;20479;-70
2023/04/01 03:03:28;;;;;;;1.23;0.60;;;9.20;83.60;;;9.28;69.18;96462.50;5064764;28;20475;-71
2023/04/01 03:05:58;;;;;;;1.90;0.70;;;9.20;83.50;;;9.40;68.89;96469.69;5066239;28;20464;-72
2023/04/01 03:08:25;;;;;;;2.20;0.80;;;9.20;83.60;;;9.09;70.11;96463.81;5053729;28;20925;-72
2023/04/01 03:10:54;;;;;;;1.67;0.70;;;9.20;83.60;;;9.35;69.42;96470.41;5052303;28;20456;-71
2023/04/01 03:13:21;;;;;;;1.47;0.60;;;9.10;83.60;;;9.28;69.62;96469.78;5049993;28;20454;-72
2023/04/01 03:15:48;;;;;;;2.53;0.80;;;9.20;83.80;;;9.30;69.84;96460.38;5048030;28;20455;-73
2023/04/01 03:18:16;;;;;;;2.13;0.83;;;9.20;83.60;;;9.27;69.15;96471.66;5047315;28;20455;-71
2023/04/01 03:20:43;;;;;;;2.37;0.60;;;9.20;83.60;;;9.35;69.23;96473.94;5047819;28;20461;-71
2023/04/01 03:23:10;;;;;;;2.20;0.70;;;9.20;83.60;;;9.34;68.77;96477.72;5052596;28;20944;-72
2023/04/01 03:25:37;;;;;;;3.47;0.87;;;9.20;83.40;;;8.96;69.24;96414.56;5048217;28;20459;-73
2023/04/01 03:28:06;;;;;;;3.93;1.10;;;9.20;83.50;;;9.21;70.10;96481.53;5044180;28;20449;-69
2023/04/01 03:30:33;;;;;;;2.87;1.00;;;9.10;83.40;;;9.12;69.18;96476.78;5042824;28;20558;-72
2023/04/01 03:33:01;;;;;;;3.03;0.90;;;9.10;83.30;;;9.35;69.07;96476.66;5041282;28;20937;-71
2023/04/01 03:35:29;;;;;;;2.63;0.80;;;9.10;83.30;;;9.21;69.32;96481.53;5039505;28;20457;-71
2023/04/01 03:37:57;;;;;;;1.93;0.70;;;9.10;83.40;;;9.15;69.78;96478.97;5049957;28;20453;-71
2023/04/01 03:40:25;;;;;;;0.93;0.60;;;9.10;83.50;;;9.02;69.85;96472.88;5043671;28;20960;-72
2023/04/01 03:42:53;;;;;;;2.20;0.70;;;9.10;83.50;;;8.81;69.84;96449.31;5041212;28;20451;-71
2023/04/01 03:45:22;;;;;;;2.43;0.80;;;9.10;83.50;;;9.08;69.91;96487.22;5043264;28;20475;-72
2023/04/01 03:47:49;;;;;;;2.43;0.50;;;9.00;83.60;;;8.87;70.59;96461.81;5044087;28;20452;-71
2023/04/01 03:50:16;;;;;;;1.93;0.67;;;9.10;83.80;;;9.09;70.38;96494.25;5044021;28;20539;-71
2023/04/01 03:52:44;;;;;;;5.03;1.07;;;9.00;83.90;;;8.93;71.42;96493.19;5042783;28;20471;-71
2023/04/01 03:55:11;;;;;;;1.40;0.70;;;9.00;83.80;;;9.16;70.05;96486.84;5043021;28;20547;-70
2023/04/01 03:57:38;;;;;;;2.20;0.70;;;9.00;83.90;;;9.16;70.15;96491.41;5038246;28;20459;-72
2023/04/01 04:00:08;;;;;;;2.47;1.20;;;9.00;84.00;;;8.61;70.33;96437.13;5041663;28;20515;-70
2023/04/01 04:02:37;;;;;;;4.33;0.97;;;9.00;83.90;;;9.21;69.80;96496.88;5037158;28;20452;-70
2023/04/01 04:05:06;;;;;;;3.43;1.70;;;9.10;84.00;;;8.96;70.42;96489.19;5031484;28;20694;-70
2023/04/01 04:07:35;;;;;;;1.33;0.80;;;9.00;83.80;;;9.15;69.50;96487.91;5041498;28;20451;-71
2023/04/01 04:10:02;;;;;;;0.83;0.60;;;9.00;83.60;;;9.22;69.72;96501.22;5045093;28;20518;-71
2023/04/01 04:12:30;;;;;;;1.60;0.60;;;9.00;83.70;;;8.98;69.72;96490.56;5042069;28;20460;-70
2023/04/01 04:14:57;;;;;;;1.63;0.70;;;9.00;83.60;;;9.18;69.44;96500.06;5057020;28;21024;-70
2023/04/01 04:17:24;;;;;;;1.70;0.63;;;9.00;83.50;;;9.01;69.59;96487.38;5039399;28;20454;-71
2023/04/01 04:19:54;;;;;;;2.70;0.70;;;9.00;83.10;;;9.17;69.42;96495.72;5042373;28;20458;-71
2023/04/01 04:22:21;;;;;;;3.13;0.60;;;9.10;83.00;;;9.10;69.18;96497.78;5057509;28;20505;-70
2023/04/01 04:24:49;;;;;;;1.43;0.67;;;9.10;83.00;;;8.95;68.61;96490.22;5058202;28;20562;-71
2023/04/01 04:27:16;;;;;;;4.80;0.80;;;9.10;82.40;;;9.21;68.13;96499.59;5041435;28;20476;-70
2023/04/01 04:29:43;;;;;;;2.97;0.50;;;9.10;82.60;;;9.18;68.76;96508.16;5043346;28;20451;-70
2023/04/01 04:32:11;;;;;;;1.33;0.67;;;9.00;82.40;;;9.26;68.18;96499.66;5042147;28;21127;-70
2023/04/01 04:34:39;;;;;;;1.70;0.60;;;9.20;82.20;;;9.22;68.51;96493.13;5044723;28;20525;-71
2023/04/01 04:37:07;;;;;;;2.53;1.00;;;9.10;82.10;;;9.28;67.91;96499.44;5040253;28;20436;-70
2023/04/01 04:39:35;;;;;;;1.37;0.60;;;9.10;82.20;;;9.06;68.62;96509.03;5063970;28;20445;-71
2023/04/01 04:42:02;;;;;;;2.93;1.10;;;9.10;82.20;;;8.98;68.73;96497.84;5064684;28;20470;-70
2023/04/01 04:44:29;;;;;;;2.10;0.40;;;9.00;82.10;;;8.93;69.09;96502.06;5063228;28;20466;-71
2023/04/01 04:46:56;;;;;;;1.00;0.50;;;9.10;82.60;;;9.14;69.11;96513.22;5048272;28;20493;-70
2023/04/01 04:49:24;;;;;;;3.17;0.83;;;9.00;82.80;;;8.96;70.34;96505.34;5051112;28;21070;-71
2023/04/01 04:51:52;;;;;;;3.50;0.60;;;9.00;83.50;;;8.84;70.31;96500.00;5048240;28;20462;-71
2023/04/01 04:54:20;;;;;;;1.60;0.60;;;9.00;83.80;;;8.70;71.79;96502.97;5046053;28;20915;-71
2023/04/01 04:56:47;;;;;;;2.50;0.60;;;8.80;84.10;;;8.81;71.22;96501.31;5047387;28;20517;-70
2023/04/01 04:59:15;;;;;;;2.10;0.50;;;8.80;84.40;;;8.79;71.53;96516.88;5036267;28;21113;-72
2023/04/01 05:01:42;;;;;;;2.83;0.80;;;8.80;84.80;;;8.76;71.75;96501.22;5045387;28;20559;-73
2023/04/01 05:04:09;;;;;;;3.60;0.83;;;8.80;84.80;;;8.85;71.96;96499.78;5042537;28;20841;-72
2023/04/01 05:06:36;;;;;;;1.00;0.70;;;8.80;85.10;;;8.81;72.33;96508.56;5048429;28;20460;-72
2023/04/01 05:09:04;;;;;;;1.67;0.80;;;8.90;85.60;;;8.83;72.30;96501.06;5054247;28;20475;-72
2023/04/01 05:11:33;;;;;;;1.83;0.80;;;8.80;86.10;;;8.77;72.85;96509.06;5041425;28;20452;-71
2023/04/01 05:14:00;;;;;;;1.83;1.20;;;8.80;86.00;;;8.52;73.06;96495.09;5045736;28;20941;-72
2023/04/01 05:16:27;;;;;;;2.00;0.90;;;8.70;86.30;;;8.76;72.67;96506.59;5045966;28;20456;-72
2023/04/01 05:18:54;;;;;;;1.67;0.70;;;8.70;86.20;;;8.78;72.03;96505.31;5046448;28;20471;-71
2023/04/01 05:21:21;;;;;;;0.90;0.57;;;8.80;85.70;;;8.68;72.61;96505.09;5044393;28;21001;-70
2023/04/01 05:23:49;;;;;;;4.10;0.50;;;8.80;85.70;;;8.57;72.99;96503.25;5047515;28;20524;-71
2023/04/01 05:26:16;;;;;;;2.00;0.70;;;8.70;85.80;;;8.54;72.88;96511.81;5039968;28;20457;-71
2023/04/01 05:28:44;;;;;;;3.03;1.13;;;8.70;85.80;;;8.72;72.93;96511.66;5046118;28;20612;-72
2023/04/01 05:31:12;;;;;;;3.47;0.53;;;8.80;85.90;;;8.81;72.61;96509.41;5030792;28;20456;-73
2023/04/01 05:33:39;;;;;;;1.10;0.70;;;8.80;85.60;;;8.88;71.97;96509.25;5054761;28;20443;-73
2023/04/01 05:36:09;;;;;;;1.00;0.60;;;8.80;85.50;;;9.05;70.48;96506.56;5042872;28;20955;-73
2023/04/01 05:38:36;;;;;;;1.87;0.80;;;8.90;85.00;;;8.75;70.37;96451.94;5063728;28;20962;-71
2023/04/01 05:41:04;;;;;;;1.23;0.50;;;9.00;84.70;;;8.89;71.04;96500.91;5036368;28;21052;-74
2023/04/01 05:43:32;;;;;;;1.50;0.47;;;9.00;84.30;;;8.92;71.60;96507.72;5046188;28;20436;-71
2023/04/01 05:46:00;;;;;;;1.93;0.77;;;9.00;84.60;;;8.92;71.03;96505.00;5045582;28;20476;-73
2023/04/01 05:48:30;;;;;;;2.20;0.60;;;8.90;84.30;;;8.77;70.47;96440.91;5054910;28;20510;-72
2023/04/01 05:50:57;;;;;;;1.83;0.70;;;9.00;84.60;;;8.99;70.86;96504.88;5049525;28;20461;-72
2023/04/01 05:53:24;;;;;;;2.13;0.80;;;9.00;84.40;;;9.03;70.44;96496.06;5063586;28;20437;-73
2023/04/01 05:55:52;;;;;;;1.17;0.50;;;9.00;84.10;;;8.93;71.38;96490.47;5061224;28;20467;-72
2023/04/01 05:58:19;;;;;;;2.60;0.47;;;9.00;83.90;;;8.94;70.82;96502.88;5049767;28;20926;-71
2023/04/01 06:00:47;;;;;;;2.37;0.73;;;9.00;83.90;;;9.13;70.00;96500.81;5041478;28;20862;-72
2023/04/01 06:03:15;;;;;;;2.97;0.73;;;9.10;84.30;;;8.93;71.34;96503.94;5041692;28;20488;-72
2023/04/01 06:05:45;;;;;;;1.70;0.63;;;9.10;83.80;;;8.88;71.21;96507.38;5039334;28;20472;-69
2023/04/01 06:08:15;;;;;;;1.03;0.60;;;9.00;84.00;;;9.20;69.80;96506.84;5043460;28;21074;-70
2023/04/01 06:11:09;;;;;;;1.23;0.90;;;9.10;84.00;;;9.17;70.07;96511.88;5050884;28;20437;-70
2023/04/01 06:14:00;;;;;;;2.13;0.50;;;9.20;83.70;;;9.21;69.35;96502.28;5044783;28;20471;-70
2023/04/01 06:16:43;;;;;;;1.77;0.50;;;9.20;83.50;;;9.29;69.62;96512.63;5038269;28;20458;-72
2023/04/01 06:19:27;;;;;;;2.20;0.70;;;9.30;83.30;;;9.03;69.23;96452.97;5038520;28;20455;-69
2023/04/01 06:22:44;;;;;;;0.63;0.40;;;9.40;83.20;;;9.57;68.54;96515.53;5042960;28;20465;-71
2023/04/01 06:25:43;;;;;;;2.10;0.40;;;9.40;83.10;;;9.40;69.65;96516.34;5040159;28;20465;-70
2023/04/01 06:28:56;;;;;;;3.40;0.67;;;9.40;82.90;;;9.24;70.54;96520.66;5045845;28;20465;-69
2023/04/01 06:31:45;;;;;;;1.77;0.60;;;9.40;83.00;;;9.28;70.00;96511.00;5049194;28;20466;-70
2023/04/01 06:34:39;;;;;;;2.20;0.80;;;9.30;83.00;;;9.72;68.19;96517.63;5049950;28;20468;-70
2023/04/01 06:37:24;;;;;;;0.57;0.57;;;9.60;82.80;;;9.89;67.72;96518.41;5052584;28;20468;-69
2023/04/01 06:40:24;;;;;;;2.53;0.60;;;9.80;82.30;;;9.88;67.59;96516.78;5066218;28;20459;-70
2023/04/01 06:43:07;;;;;;;0.80;0.40;;;9.80;81.80;;;10.38;65.45;96516.91;5065919;28;20508;-71
2023/04/01 06:45:47;;;;;;;1.43;0.60;;;10.00;80.50;;;9.97;66.48;96503.69;5048120;28;20589;-72
2023/04/01 06:48:41;;;;;;;2.20;0.57;;;10.00;79.80;;;10.32;64.46;96496.31;5048521;28;20452;-71
2023/04/01 06:51:24;;;;;;;0.73;0.37;;;10.30;79.30;;;9.75;66.42;96517.13;5034340;28;20483;-71
2023/04/01 06:53:57;;;;;;;0.80;0.60;;;10.00;79.20;;;9.93;66.76;96513.34;5046869;28;20445;-71
2023/04/01 06:56:28;;;;;;;1.77;0.80;;;9.90;80.50;;;10.38;64.36;96511.50;5049982;28;21008;-70
2023/04/01 06:59:00;;;;;;;0.77;0.40;;;10.10;78.90;;;9.86;66.01;96510.81;5050526;28;20953;-70
2023/04/01 07:01:34;;;;;;;3.50;0.50;;;10.10;78.50;;;9.99;65.42;96508.84;5048664;28;20902;-71
2023/04/01 07:04:10;;;;;;;3.43;0.60;;;10.00;78.60;;;10.23;64.21;96504.03;5048933;28;20621;-68
2023/04/01 07:06:49;;;;;;;1.83;0.83;;;10.20;78.20;;;10.29;63.72;96494.13;5039635;28;20467;-70
2023/04/01 07:09:24;;;;;;;1.03;0.53;;;10.20;77.70;;;10.43;63.78;96505.38;5047235;28;20446;-69
2023/04/01 07:11:54;;;;;;;3.10;0.60;;;10.40;77.70;;;10.17;64.00;96505.84;5042948;28;20911;-70
2023/04/01 07:14:27;;;;;;;2.00;0.60;;;10.30;77.60;;;10.36;63.85;96502.84;5045332;28;20461;-70
2023/04/01 07:17:01;;;;;;;1.90;0.60;;;10.30;77.60;;;10.31;62.60;96492.00;5042443;28;20462;-70
2023/04/01 07:19:33;;;;;;;1.60;0.50;;;10.40;76.90;;;10.13;64.32;96504.72;5035468;28;20568;-76
2023/04/01 07:22:07;;;;;;;3.60;0.63;;;10.20;77.20;;;10.53;62.92;96500.13;5035755;28;20695;-69
2023/04/01 07:24:38;;;;;;;0.70;0.50;;;10.50;77.00;;;10.88;61.55;96484.56;5040151;28;20454;-70
2023/04/01 07:27:11;;;;;;;3.83;0.53;;;10.70;76.60;;;10.72;61.19;96497.06;5032589;28;20499;-69
2023/04/01 07:29:38;;;;;;;1.90;0.50;;;10.80;75.80;;;10.93;61.11;96503.50;5067945;28;20893;-71
2023/04/01 07:32:34;;;;;;;2.90;0.60;;;10.80;75.80;;;11.10;60.67;96503.41;5041649;28;20449;-70
2023/04/01 07:35:12;;;;;;;1.77;0.63;;;10.90;75.80;;;10.70;61.42;96500.03;5042410;28;20453;-72
2023/04/01 07:37:53;;;;;;;2.57;0.47;;;10.90;75.40;;;10.84;61.68;96499.63;5041541;28;21075;-70
2023/04/01 07:40:30;;;;;;;0.80;0.30;;;10.80;75.70;;;11.33;59.81;96498.72;5044012;28;20456;-69
2023/04/01 07:43:24;;;;;;;1.83;0.60;;;11.10;75.40;;;11.28;59.88;96502.19;5045459;28;20540;-69
2023/04/01 07:45:58;;;;;;;1.70;0.70;;;11.10;75.10;;;11.64;58.85;96498.16;5041776;28;20847;-70
2023/04/01 07:48:34;;;;;;;1.40;0.70;;;11.30;74.80;;;11.08;60.37;96504.72;5041731;28;20456;-69
2023/04/01 07:51:08;;;;;;;2.90;0.70;;;11.10;74.70;;;10.98;60.49;96517.06;5050703;28;20495;-69
2023/04/01 07:53:44;;;;;;;1.17;0.73;;;11.00;74.70;;;10.98;60.20;96522.47;5050489;28;20460;-70
2023/04/01 07:56:16;;;;;;;1.13;0.57;;;10.90;75.00;;;10.72;61.02;96515.97;5038597;28;20468;-69
2023/04/01 07:58:59;;;;;;;2.50;2.30;;;10.80;74.90;;;11.18;59.94;96526.47;5037522;28;20449;-70
2023/04/01 08:01:33;;;;;;;1.40;0.70;;;11.10;74.90;;;10.86;60.92;96525.31;5036249;28;20928;-70
2023/04/01 08:04:24;;;;;;;2.30;0.60;;;11.00;74.60;;;11.48;59.59;96522.41;5036433;28;20963;-69
2023/04/01 08:07:03;;;;;;;2.20;0.70;;;11.20;74.80;;;11.87;57.48;96524.84;5035208;28;20481;-71
2023/04/01 08:09:42;;;;;;;2.40;0.60;;;11.60;73.70;;;11.10;59.47;96518.81;5040714;28;20809;-67
2023/04/01 08:12:22;;;;;;;3.50;0.80;;;11.40;72.90;;;11.36;59.05;96521.75;5035255;28;20467;-68
2023/04/01 08:15:04;;;;;;;2.10;0.70;;;11.40;73.50;;;11.66;58.07;96515.75;5037952;28;20792;-68
2023/04/01 08:17:42;;;;;;;1.80;0.60;;;11.50;73.50;;;11.81;57.94;96520.47;5045568;28;20553;-67
2023/04/01 08:20:27;;;;;;;0.93;0.43;;;11.60;73.30;;;11.91;57.27;96511.59;5031220;28;20937;-69
2023/04/01 08:23:01;;;;;;;0.63;0.40;;;11.70;73.10;;;11.70;57.51;96506.06;5038956;28;20566;-68
2023/04/01 08:25:31;;;;;;;3.23;0.80;;;11.70;72.60;;;11.96;57.16;96524.38;5044305;28;20472;-69
2023/04/01 08:28:10;;;;;;;1.20;0.50;;;11.80;72.50;;;11.54;57.77;96507.03;5045306;28;20461;-67
2023/04/01 08:30:43;;;;;;;1.90;0.70;;;11.70;72.30;;;11.69;56.93;96511.72;5038713;28;20527;-69
2023/04/01 08:33:17;;;;;;;1.80;0.50;;;11.70;71.90;;;11.32;57.94;96511.44;5033293;28;20455;-69
2023/04/01 08:35:53;;;;;;;1.10;0.40;;;11.50;71.90;;;11.56;57.48;96519.19;5029270;28;20461;-69
2023/04/01 08:38:28;;;;;;;1.40;0.60;;;11.50;72.20;;;11.69;57.03;96511.72;5028205;28;20465;-70
2023/04/01 08:41:38;;;;;;;2.23;0.80;;;11.60;72.00;;;11.23;58.46;96523.78;5036922;28;20601;-68
2023/04/01 08:44:48;;;;;;;1.97;0.60;;;11.40;71.70;;;11.31;58.25;96515.22;5030410;28;20467;-70
2023/04/01 08:47:47;;;;;;;1.53;0.43;;;11.30;71.70;;;11.64;57.12;96509.00;5045421;28;20480;-71
2023/04/01 08:50:48;;;;;;;1.43;0.60;;;11.50;71.90;;;11.60;57.34;96517.63;5031522;28;20472;-68
2023/04/01 08:53:26;;;;;;;1.23;0.50;;;11.50;71.60;;;11.59;57.08;96505.16;5037280;28;20466;-72
2023/04/01 08:56:07;;;;;;;2.30;0.67;;;11.60;71.30;;;10.73;57.97;96440.09;5045430;28;20449;-72
2023/04/01 08:59:22;;;;;;;1.43;0.53;;;11.30;71.20;;;11.11;58.09;96515.03;5041551;28;20463;-73
2023/04/01 09:02:40;;;;;;;2.20;1.03;;;11.20;71.70;;;11.38;57.54;96500.66;5045475;28;20456;-73
2023/04/01 09:05:37;;;;;;;1.30;0.60;;;11.20;71.90;;;11.51;57.22;96512.94;5027626;28;21244;-69
2023/04/01 09:08:21;;;;;;;1.20;0.50;;;11.30;71.60;;;11.37;58.22;96507.94;5037656;28;20450;-70
2023/04/01 09:11:07;;;;;;;0.50;0.50;;;11.40;71.90;;;11.11;58.07;96504.22;5040563;28;20453;-70
2023/04/01 09:14:06;;;;;;;1.23;0.40;;;11.20;71.30;;;11.45;57.50;96517.50;5042373;28;20465;-69
2023/04/01 09:17:19;;;;;;;0.70;0.53;;;11.30;71.40;;;11.39;57.59;96513.13;5043040;28;20441;-70
2023/04/01 09:20:08;;;;;;;0.87;0.40;;;11.40;71.50;;;11.38;57.08;96498.78;5055980;28;20460;-70
2023/04/01 09:23:14;;;;;;;1.77;0.60;;;11.30;71.30;;;12.05;56.30;96520.09;5032668;28;20457;-71
2023/04/01 09:26:00;;;;;;;2.10;0.30;;;11.70;71.00;;;12.08;56.02;96506.06;5026693;28;20480;-70
2023/04/01 09:28:35;;;;;;;0.90;0.57;;;11.90;70.70;;;12.10;55.80;96514.72;5033528;28;20571;-67
2023/04/01 09:31:56;;;;;;;0.80;0.50;;;12.00;70.40;;;11.87;56.46;96516.72;5031033;28;20530;-69
2023/04/01 09:34:36;;;;;;;0.73;0.60;;;11.80;70.50;;;12.24;55.64;96506.16;5030345;28;20444;-68
2023/04/01 09:37:21;;;;;;;1.20;0.80;;;12.00;70.30;;;12.22;55.92;96503.69;5032113;28;20540;-69
2023/04/01 09:40:19;;;;;;;0.67;0.40;;;12.10;70.60;;;12.03;56.30;96508.72;5041498;28;20909;-69
2023/04/01 09:43:22;;;;;;;0.77;0.50;;;12.00;70.60;;;11.74;57.83;96507.16;5034878;28;20540;-69
2023/04/01 09:46:19;;;;;;;0.50;0.33;;;11.80;71.60;;;11.58;58.26;96500.81;5045508;28;20482;-69
2023/04/01 09:49:35;;;;;;;0.70;0.70;;;11.60;71.60;;;11.87;58.06;96505.09;5043951;28;20502;-68
2023/04/01 09:52:20;;;;;;;0.70;0.40;;;11.70;71.90;;;11.69;57.14;96507.16;5046297;28;20547;-69
2023/04/01 09:55:04;;;;;;;1.10;0.60;;;11.80;71.10;;;11.28;59.37;96520.31;5041133;28;20478;-68
2023/04/01 09:58:28;;;;;;;1.43;0.63;;;11.40;72.10;;;11.79;58.62;96519.94;5040234;28;20445;-71
2023/04/01 10:01:35;;;;;;;0.70;0.60;;;11.50;72.60;;;11.74;59.12;96515.28;5042988;28;20949;-73
2023/04/01 10:04:59;;;;;;;1.33;0.60;;;11.50;72.80;;;11.64;59.72;96525.22;5000141;28;20482;-69
2023/04/01 10:08:31;;;;;;;0.53;0.37;;;11.50;73.00;;;11.29;58.79;96538.97;5033228;28;20485;-68
2023/04/01 10:11:27;;;;;;;0.70;0.33;;;11.50;72.40;;;11.38;59.85;96538.53;5011353;28;20452;-69
2023/04/01 10:14:37;;;;;;;1.83;0.60;;;11.40;73.10;;;11.43;60.44;96542.09;5048981;28;20449;-69
2023/04/01 10:17:47;;;;;;;2.60;1.70;;;11.40;73.70;;;11.13;62.75;96539.91;5041911;28;20484;-69
2023/04/01 10:21:00;;;;;;;0.93;0.37;;;11.30;74.90;;;11.55;63.93;96533.00;5011657;28;20455;-69
2023/04/01 10:23:58;;;;;;;0.40;0.40;;;11.40;77.10;;;11.13;64.40;96529.09;5036489;28;20461;-68
2023/04/01 10:26:44;;;;;;;1.73;0.73;;;11.30;76.60;;;11.30;64.89;96535.22;5039560;28;21355;-75
2023/04/01 10:29:43;;;;;;;1.07;1.00;;;11.20;78.00;;;10.70;67.40;96532.47;5049887;28;20949;-69
2023/04/01 10:33:07;;;;;;;0.80;0.50;;;10.80;78.80;;;11.16;67.23;96528.59;5039825;28;20460;-68
2023/04/01 10:39:30;;;;;;;0.60;0.60;;;10.90;80.20;;;12.41;64.83;96512.19;5079891;27;20638;-67
2023/04/01 10:42:43;;;;;;;1.80;0.83;;;12.10;80.30;;;12.36;65.40;96484.25;5074843;28;20481;-68
2023/04/01 10:46:00;;;;;;;1.07;0.97;;;12.20;80.30;;;12.07;67.12;96509.84;5087758;28;20451;-68
2023/04/01 10:49:11;;;;;;;1.93;0.87;;;12.20;80.00;;;11.37;69.08;96509.84;5072904;28;20999;-70
2023/04/01 10:52:33;;;;;;;1.67;0.87;;;11.50;81.70;;;10.46;72.41;96519.19;5074743;28;20463;-68
2023/04/01 10:55:26;;;;;;;1.10;0.90;;;10.70;83.90;;;10.64;72.66;96517.25;5070595;28;20460;-68
2023/04/01 10:58:18;;;;;;;1.00;0.80;;;10.60;87.10;;;11.13;71.99;96510.19;5076396;28;20477;-68
2023/04/01 11:01:35;;;;;;;1.70;0.73;;;10.80;87.60;;;10.85;73.92;96517.50;5076778;28;21028;-68
2023/04/01 11:05:15;;;;;;;1.07;0.90;;;10.80;88.60;;;11.15;73.53;96510.75;5065252;28;20454;-68
2023/04/01 11:08:39;;;;;;;1.53;1.00;;;10.80;90.40;;;11.38;72.62;96516.91;5069973;28;20481;-68
2023/04/01 11:11:57;;;;;;;1.27;1.13;;;11.00;90.10;;;10.73;73.59;96510.34;5075247;28;20451;-71
2023/04/01 11:15:15;;;;;;;0.90;0.67;;;10.90;88.20;;;10.90;73.32;96509.44;5083486;28;20446;-65
2023/04/01 11:18:26;;;;;;;2.40;0.90;;;10.80;90.00;;;10.41;75.42;96513.75;5067187;28;20567;-64
2023/04/01 11:21:40;;;;;;;1.70;0.90;;;10.70;88.10;;;10.49;75.08;96516.00;5069280;28;20550;-65
2023/04/01 11:24:30;;;;;;;3.53;1.03;;;10.50;91.20;;;10.59;74.55;96520.69;5091334;28;20478;-66